JST600 YSSY-YSCB
Flight info
| Callsign | JST600 |
|---|---|
| Flight time | 0h 32m |
| Altitude | 24000 |
| Route | WOL H65 LEECE |
| Aircraft | A320/M-SDE3FGHIRWY/LB1 |
Departure
| Time | 2026-05-07 22:12 |
|---|---|
| Airport | Sydney Kingsford Smith International Airport (YSSY) |
Arrival
| Time | 2026-05-07 22:44 |
|---|---|
| Airport | Canberra Airport (YSCB) |
| Time | Latitude | Longitude | Altitude | Speed | Heading |
|---|---|---|---|---|---|
| 2026-05-07 21:30 | -33.93524 | 151.17765 | 30 ft | 0 kts | 280° |
| 2026-05-07 21:59 | -33.93526 | 151.17777 | 30 ft | 4 kts | 281° |
| 2026-05-07 21:59 | -33.93530 | 151.17809 | 30 ft | 4 kts | 273° |
| 2026-05-07 21:59 | -33.93528 | 151.17835 | 30 ft | 4 kts | 212° |
| 2026-05-07 21:59 | -33.93533 | 151.17837 | 30 ft | 4 kts | 190° |
| 2026-05-07 22:00 | -33.93560 | 151.17831 | 30 ft | 4 kts | 190° |
| 2026-05-07 22:00 | -33.93587 | 151.17826 | 30 ft | 4 kts | 190° |
| 2026-05-07 22:00 | -33.93612 | 151.17820 | 30 ft | 2 kts | 190° |
| 2026-05-07 22:00 | -33.93613 | 151.17820 | 30 ft | 0 kts | 190° |
| 2026-05-07 22:02 | -33.93615 | 151.17820 | 30 ft | 1 kts | 190° |
| 2026-05-07 22:02 | -33.93635 | 151.17816 | 30 ft | 5 kts | 189° |
| 2026-05-07 22:03 | -33.93676 | 151.17804 | 30 ft | 8 kts | 194° |
| 2026-05-07 22:03 | -33.93737 | 151.17785 | 30 ft | 10 kts | 194° |
| 2026-05-07 22:03 | -33.93817 | 151.17762 | 30 ft | 13 kts | 187° |
| 2026-05-07 22:03 | -33.93916 | 151.17783 | 29 ft | 16 kts | 167° |
| 2026-05-07 22:04 | -33.94034 | 151.17815 | 29 ft | 19 kts | 167° |
| 2026-05-07 22:04 | -33.94170 | 151.17849 | 30 ft | 21 kts | 168° |
| 2026-05-07 22:04 | -33.94300 | 151.17865 | 30 ft | 15 kts | 206° |
| 2026-05-07 22:04 | -33.94360 | 151.17755 | 30 ft | 17 kts | 207° |
| 2026-05-07 22:05 | -33.94482 | 151.17780 | 30 ft | 19 kts | 166° |
| 2026-05-07 22:05 | -33.94622 | 151.17820 | 30 ft | 22 kts | 168° |
| 2026-05-07 22:05 | -33.94778 | 151.17859 | 30 ft | 24 kts | 168° |
| 2026-05-07 22:05 | -33.94950 | 151.17904 | 30 ft | 27 kts | 167° |
| 2026-05-07 22:06 | -33.95125 | 151.17950 | 30 ft | 19 kts | 168° |
| 2026-05-07 22:06 | -33.95216 | 151.17882 | 30 ft | 18 kts | 257° |
| 2026-05-07 22:06 | -33.95242 | 151.17718 | 29 ft | 22 kts | 257° |
| 2026-05-07 22:06 | -33.95320 | 151.17585 | 29 ft | 21 kts | 189° |
| 2026-05-07 22:07 | -33.95468 | 151.17613 | 30 ft | 23 kts | 168° |
| 2026-05-07 22:07 | -33.95635 | 151.17655 | 30 ft | 25 kts | 168° |
| 2026-05-07 22:07 | -33.95816 | 151.17704 | 30 ft | 28 kts | 167° |
| 2026-05-07 22:07 | -33.96016 | 151.17756 | 30 ft | 31 kts | 168° |
| 2026-05-07 22:08 | -33.96233 | 151.17811 | 30 ft | 32 kts | 167° |
| 2026-05-07 22:08 | -33.96398 | 151.17857 | 30 ft | 20 kts | 164° |
| 2026-05-07 22:08 | -33.96436 | 151.17930 | 30 ft | 7 kts | 83° |
| 2026-05-07 22:08 | -33.96433 | 151.17946 | 30 ft | 0 kts | 77° |
| 2026-05-07 22:09 | -33.96433 | 151.17947 | 30 ft | 0 kts | 77° |
| 2026-05-07 22:09 | -33.96430 | 151.17964 | 30 ft | 4 kts | 77° |
| 2026-05-07 22:09 | -33.96422 | 151.18009 | 30 ft | 7 kts | 77° |
| 2026-05-07 22:09 | -33.96389 | 151.18054 | 30 ft | 8 kts | 6° |
| 2026-05-07 22:10 | -33.96373 | 151.18051 | 30 ft | 0 kts | 347° |
| 2026-05-07 22:11 | -33.96192 | 151.18003 | 28 ft | 62 kts | 348° |
| 2026-05-07 22:11 | -33.95560 | 151.17840 | 29 ft | 121 kts | 347° |
| 2026-05-07 22:11 | -33.94594 | 151.17582 | 199 ft | 151 kts | 345° |
| 2026-05-07 22:12 | -33.93561 | 151.17296 | 816 ft | 155 kts | 341° |
| 2026-05-07 22:12 | -33.92542 | 151.16896 | 1495 ft | 153 kts | 324° |
| 2026-05-07 22:12 | -33.91617 | 151.16220 | 1960 ft | 162 kts | 311° |
| 2026-05-07 22:12 | -33.90786 | 151.15221 | 2290 ft | 176 kts | 300° |
| 2026-05-07 22:13 | -33.90132 | 151.13916 | 2648 ft | 191 kts | 288° |
| 2026-05-07 22:13 | -33.89530 | 151.12367 | 2931 ft | 218 kts | 289° |
| 2026-05-07 22:13 | -33.88835 | 151.10626 | 3382 ft | 243 kts | 291° |
| 2026-05-07 22:13 | -33.88065 | 151.08750 | 4144 ft | 255 kts | 291° |
| 2026-05-07 22:14 | -33.87262 | 151.06813 | 5061 ft | 261 kts | 291° |
| 2026-05-07 22:14 | -33.86440 | 151.04839 | 5980 ft | 266 kts | 291° |
| 2026-05-07 22:14 | -33.85605 | 151.02834 | 6886 ft | 270 kts | 291° |
| 2026-05-07 22:14 | -33.84798 | 151.00781 | 7777 ft | 271 kts | 284° |
| 2026-05-07 22:15 | -33.84446 | 150.98589 | 8699 ft | 265 kts | 266° |
| 2026-05-07 22:15 | -33.84730 | 150.96425 | 9641 ft | 260 kts | 246° |
| 2026-05-07 22:15 | -33.85626 | 150.94563 | 10546 ft | 258 kts | 228° |
| 2026-05-07 22:15 | -33.86997 | 150.93210 | 11369 ft | 262 kts | 212° |
| 2026-05-07 22:16 | -33.88800 | 150.92455 | 11654 ft | 292 kts | 192° |
| 2026-05-07 22:16 | -33.90931 | 150.92673 | 11839 ft | 329 kts | 168° |
| 2026-05-07 22:16 | -33.93096 | 150.93907 | 12133 ft | 353 kts | 159° |
| 2026-05-07 22:16 | -33.95284 | 150.95331 | 12754 ft | 359 kts | 159° |
| 2026-05-07 22:17 | -33.97582 | 150.96441 | 13435 ft | 353 kts | 172° |
| 2026-05-07 22:17 | -33.99987 | 150.96831 | 14124 ft | 346 kts | 186° |
| 2026-05-07 22:17 | -34.02358 | 150.96490 | 14762 ft | 341 kts | 199° |
| 2026-05-07 22:17 | -34.04647 | 150.95746 | 15383 ft | 343 kts | 200° |
| 2026-05-07 22:18 | -34.06961 | 150.94983 | 16012 ft | 346 kts | 200° |
| 2026-05-07 22:18 | -34.11629 | 150.93459 | 17365 ft | 350 kts | 200° |
| 2026-05-07 22:18 | -34.13992 | 150.92692 | 18028 ft | 353 kts | 200° |
| 2026-05-07 22:19 | -34.16377 | 150.91920 | 18652 ft | 357 kts | 200° |
| 2026-05-07 22:19 | -34.18788 | 150.91139 | 19233 ft | 360 kts | 200° |
| 2026-05-07 22:19 | -34.21210 | 150.90353 | 19817 ft | 363 kts | 200° |
| 2026-05-07 22:19 | -34.23655 | 150.89560 | 20400 ft | 365 kts | 200° |
| 2026-05-07 22:20 | -34.26085 | 150.88773 | 20939 ft | 367 kts | 200° |
| 2026-05-07 22:20 | -34.28567 | 150.87970 | 21496 ft | 370 kts | 200° |
| 2026-05-07 22:20 | -34.31058 | 150.87159 | 22033 ft | 371 kts | 200° |
| 2026-05-07 22:20 | -34.33560 | 150.86348 | 22548 ft | 373 kts | 200° |
| 2026-05-07 22:21 | -34.36080 | 150.85534 | 23036 ft | 375 kts | 200° |
| 2026-05-07 22:21 | -34.38605 | 150.84716 | 23507 ft | 377 kts | 200° |
| 2026-05-07 22:21 | -34.41149 | 150.83890 | 23906 ft | 380 kts | 200° |
| 2026-05-07 22:21 | -34.43704 | 150.83053 | 24073 ft | 381 kts | 200° |
| 2026-05-07 22:22 | -34.46293 | 150.82201 | 24116 ft | 391 kts | 200° |
| 2026-05-07 22:22 | -34.48955 | 150.81324 | 24139 ft | 399 kts | 200° |
| 2026-05-07 22:22 | -34.51629 | 150.80425 | 24105 ft | 398 kts | 202° |
| 2026-05-07 22:22 | -34.54153 | 150.79108 | 24108 ft | 393 kts | 212° |
| 2026-05-07 22:23 | -34.56405 | 150.77252 | 24101 ft | 391 kts | 221° |
| 2026-05-07 22:23 | -34.58317 | 150.74918 | 24064 ft | 390 kts | 230° |
| 2026-05-07 22:23 | -34.59936 | 150.72264 | 24112 ft | 393 kts | 232° |
| 2026-05-07 22:23 | -34.61545 | 150.69582 | 24115 ft | 394 kts | 232° |
| 2026-05-07 22:24 | -34.63161 | 150.66898 | 24108 ft | 394 kts | 232° |
| 2026-05-07 22:24 | -34.64778 | 150.64214 | 24109 ft | 394 kts | 232° |
| 2026-05-07 22:24 | -34.66398 | 150.61525 | 24123 ft | 394 kts | 232° |
| 2026-05-07 22:24 | -34.68013 | 150.58842 | 24120 ft | 393 kts | 232° |
| 2026-05-07 22:25 | -34.69625 | 150.56160 | 24110 ft | 393 kts | 232° |
| 2026-05-07 22:25 | -34.71241 | 150.53471 | 24108 ft | 393 kts | 232° |
| 2026-05-07 22:25 | -34.72852 | 150.50784 | 24124 ft | 393 kts | 232° |
| 2026-05-07 22:25 | -34.74462 | 150.48097 | 24123 ft | 393 kts | 232° |
| 2026-05-07 22:26 | -34.76071 | 150.45416 | 24114 ft | 393 kts | 233° |
| 2026-05-07 22:26 | -34.77659 | 150.42765 | 24115 ft | 393 kts | 233° |
| 2026-05-07 22:26 | -34.79268 | 150.40076 | 24135 ft | 393 kts | 233° |
| 2026-05-07 22:26 | -34.80872 | 150.37386 | 24146 ft | 393 kts | 233° |
| 2026-05-07 22:27 | -34.82473 | 150.34698 | 24159 ft | 392 kts | 232° |
| 2026-05-07 22:27 | -34.84075 | 150.32012 | 24160 ft | 391 kts | 232° |
| 2026-05-07 22:27 | -34.85675 | 150.29332 | 24160 ft | 391 kts | 232° |
| 2026-05-07 22:27 | -34.87271 | 150.26653 | 24173 ft | 390 kts | 232° |
| 2026-05-07 22:28 | -34.88867 | 150.23976 | 24163 ft | 390 kts | 232° |
| 2026-05-07 22:28 | -34.90458 | 150.21305 | 24162 ft | 389 kts | 232° |
| 2026-05-07 22:28 | -34.92045 | 150.18635 | 24160 ft | 389 kts | 232° |
| 2026-05-07 22:28 | -34.93633 | 150.15960 | 24144 ft | 389 kts | 232° |
| 2026-05-07 22:29 | -34.95222 | 150.13280 | 24140 ft | 389 kts | 233° |
| 2026-05-07 22:29 | -34.96808 | 150.10604 | 24175 ft | 389 kts | 232° |
| 2026-05-07 22:29 | -34.98395 | 150.07929 | 24175 ft | 389 kts | 233° |
| 2026-05-07 22:29 | -34.99980 | 150.05254 | 24182 ft | 389 kts | 232° |
| 2026-05-07 22:30 | -35.01546 | 150.02611 | 24184 ft | 389 kts | 232° |
| 2026-05-07 22:30 | -35.03156 | 149.99891 | 24075 ft | 394 kts | 232° |
| 2026-05-07 22:30 | -35.04766 | 149.97175 | 23842 ft | 395 kts | 232° |
| 2026-05-07 22:30 | -35.06510 | 149.94643 | 23575 ft | 394 kts | 226° |
| 2026-05-07 22:31 | -35.08395 | 149.92217 | 23317 ft | 393 kts | 226° |
| 2026-05-07 22:31 | -35.10269 | 149.89805 | 22526 ft | 389 kts | 226° |
| 2026-05-07 22:31 | -35.12122 | 149.87420 | 21532 ft | 385 kts | 225° |
| 2026-05-07 22:31 | -35.13952 | 149.85058 | 20638 ft | 380 kts | 226° |
| 2026-05-07 22:32 | -35.15762 | 149.82715 | 19755 ft | 377 kts | 226° |
| 2026-05-07 22:32 | -35.17555 | 149.80392 | 18882 ft | 374 kts | 226° |
| 2026-05-07 22:32 | -35.19336 | 149.78086 | 17943 ft | 372 kts | 226° |
| 2026-05-07 22:32 | -35.21105 | 149.75795 | 17056 ft | 369 kts | 226° |
| 2026-05-07 22:33 | -35.22861 | 149.73518 | 16196 ft | 366 kts | 226° |
| 2026-05-07 22:33 | -35.24605 | 149.71255 | 15363 ft | 366 kts | 226° |
| 2026-05-07 22:33 | -35.26352 | 149.68988 | 14542 ft | 365 kts | 226° |
| 2026-05-07 22:33 | -35.28098 | 149.66724 | 13729 ft | 365 kts | 226° |
| 2026-05-07 22:34 | -35.29805 | 149.64505 | 13331 ft | 343 kts | 226° |
| 2026-05-07 22:34 | -35.31376 | 149.62460 | 12791 ft | 319 kts | 226° |
| 2026-05-07 22:34 | -35.32836 | 149.60559 | 12488 ft | 297 kts | 226° |
| 2026-05-07 22:34 | -35.34240 | 149.58734 | 12250 ft | 291 kts | 226° |
| 2026-05-07 22:35 | -35.35621 | 149.56941 | 11997 ft | 286 kts | 226° |
| 2026-05-07 22:35 | -35.36981 | 149.55176 | 11747 ft | 285 kts | 226° |
| 2026-05-07 22:35 | -35.38341 | 149.53411 | 11499 ft | 285 kts | 226° |
| 2026-05-07 22:35 | -35.39695 | 149.51647 | 11244 ft | 284 kts | 226° |
| 2026-05-07 22:36 | -35.41026 | 149.49907 | 11001 ft | 283 kts | 226° |
| 2026-05-07 22:36 | -35.42371 | 149.48150 | 10751 ft | 281 kts | 226° |
| 2026-05-07 22:36 | -35.43694 | 149.46421 | 10499 ft | 273 kts | 226° |
| 2026-05-07 22:36 | -35.44962 | 149.44755 | 10407 ft | 261 kts | 227° |
| 2026-05-07 22:37 | -35.45955 | 149.42944 | 10273 ft | 254 kts | 241° |
| 2026-05-07 22:37 | -35.46471 | 149.40889 | 10119 ft | 251 kts | 256° |
| 2026-05-07 22:37 | -35.46539 | 149.38766 | 9991 ft | 247 kts | 263° |
| 2026-05-07 22:37 | -35.46532 | 149.36651 | 9572 ft | 248 kts | 262° |
| 2026-05-07 22:38 | -35.46568 | 149.34546 | 9195 ft | 244 kts | 256° |
| 2026-05-07 22:38 | -35.46995 | 149.32590 | 8846 ft | 232 kts | 242° |
| 2026-05-07 22:38 | -35.47751 | 149.30884 | 8524 ft | 224 kts | 237° |
| 2026-05-07 22:38 | -35.48509 | 149.29246 | 8205 ft | 217 kts | 237° |
| 2026-05-07 22:39 | -35.48994 | 149.28188 | 7994 ft | 212 kts | 237° |
| 2026-05-07 22:39 | -35.49696 | 149.26656 | 7695 ft | 201 kts | 237° |
| 2026-05-07 22:39 | -35.50245 | 149.25100 | 7227 ft | 202 kts | 253° |
| 2026-05-07 22:39 | -35.50219 | 149.23345 | 6708 ft | 211 kts | 270° |
| 2026-05-07 22:40 | -35.49969 | 149.21563 | 6123 ft | 214 kts | 278° |
| 2026-05-07 22:40 | -35.49094 | 149.20024 | 5544 ft | 235 kts | 320° |
| 2026-05-07 22:40 | -35.47532 | 149.19433 | 5185 ft | 240 kts | 351° |
| 2026-05-07 22:40 | -35.45883 | 149.19422 | 4839 ft | 233 kts | 355° |
| 2026-05-07 22:41 | -35.44300 | 149.19444 | 4515 ft | 220 kts | 355° |
| 2026-05-07 22:41 | -35.42836 | 149.19451 | 4224 ft | 203 kts | 355° |
| 2026-05-07 22:41 | -35.41482 | 149.19450 | 3985 ft | 187 kts | 355° |
| 2026-05-07 22:41 | -35.40222 | 149.19449 | 3695 ft | 176 kts | 356° |
| 2026-05-07 22:42 | -35.39033 | 149.19447 | 3433 ft | 165 kts | 357° |
| 2026-05-07 22:42 | -35.37925 | 149.19447 | 3169 ft | 152 kts | 358° |
| 2026-05-07 22:42 | -35.36918 | 149.19447 | 2983 ft | 138 kts | 355° |
| 2026-05-07 22:42 | -35.35969 | 149.19449 | 2789 ft | 135 kts | 356° |
| 2026-05-07 22:43 | -35.35045 | 149.19453 | 2621 ft | 134 kts | 357° |
| 2026-05-07 22:43 | -35.34119 | 149.19447 | 2444 ft | 133 kts | 356° |
| 2026-05-07 22:43 | -35.33191 | 149.19446 | 2265 ft | 132 kts | 356° |
| 2026-05-07 22:43 | -35.32270 | 149.19446 | 2058 ft | 131 kts | 356° |
| 2026-05-07 22:44 | -35.31358 | 149.19446 | 1885 ft | 130 kts | 356° |
| 2026-05-07 22:44 | -35.30594 | 149.19441 | 1879 ft | 86 kts | 360° |
| 2026-05-07 22:44 | -35.30255 | 149.19442 | 1880 ft | 15 kts | 359° |
| 2026-05-07 22:44 | -35.30175 | 149.19386 | 1880 ft | 15 kts | 288° |
| 2026-05-07 22:45 | -35.30165 | 149.19258 | 1880 ft | 17 kts | 229° |
| 2026-05-07 22:45 | -35.30283 | 149.19239 | 1878 ft | 19 kts | 179° |
| 2026-05-07 22:45 | -35.30420 | 149.19239 | 1880 ft | 20 kts | 179° |
| 2026-05-07 22:45 | -35.30568 | 149.19240 | 1878 ft | 21 kts | 180° |
| 2026-05-07 22:46 | -35.30647 | 149.19200 | 1878 ft | 11 kts | 262° |
| 2026-05-07 22:46 | -35.30667 | 149.19114 | 1878 ft | 8 kts | 231° |
| 2026-05-07 22:46 | -35.30680 | 149.19095 | 1877 ft | 1 kts | 231° |